Time;durP1;ratioP1;P1;durP2;ratioP2;P2;SDS_P1;SDS_P2;PMS_P1;PMS_P2;Temp;Humidity;BMP_temperature;BMP_pressure;BME280_temperature;BME280_humidity;BME280_pressure;Samples;Min_cycle;Max_cycle;Signal;HPM_P1;HPM_P2
2023/06/09 00:00:14;;;;;;;13.70;4.32;;;;;;;;;;5005495;28;20239;-58
2023/06/09 00:02:39;;;;;;;10.95;4.20;;;;;;;;;;5005335;28;20223;-59
2023/06/09 00:05:05;;;;;;;12.75;4.20;;;;;;;;;;5004985;28;20209;-58
2023/06/09 00:07:33;;;;;;;12.50;4.40;;;;;;;;;;5005354;28;20285;-59
2023/06/09 00:09:59;;;;;;;15.68;4.55;;;;;;;;;;5016339;28;20215;-59
2023/06/09 00:12:24;;;;;;;10.35;4.53;;;;;;;;;;5016019;28;20592;-59
2023/06/09 00:14:49;;;;;;;13.90;4.43;;;;;;;;;;5008624;28;20282;-59
2023/06/09 00:17:15;;;;;;;11.60;4.47;;;;;;;;;;5003970;28;20208;-59
2023/06/09 00:19:43;;;;;;;16.00;5.15;;;;;;;;;;5004904;28;20727;-59
2023/06/09 00:22:13;;;;;;;9.90;4.38;;;;;;;;;;5023295;28;20208;-58
2023/06/09 00:24:38;;;;;;;10.65;4.40;;;;;;;;;;5024067;28;20208;-59
2023/06/09 00:27:04;;;;;;;12.27;5.30;;;;;;;;;;5022174;28;20713;-59
2023/06/09 00:29:29;;;;;;;14.40;4.35;;;;;;;;;;5023514;28;20215;-59
2023/06/09 00:31:55;;;;;;;11.23;4.70;;;;;;;;;;5010921;28;20623;-59
2023/06/09 00:34:20;;;;;;;15.80;4.47;;;;;;;;;;4996279;28;20252;-59
2023/06/09 00:36:46;;;;;;;13.00;4.43;;;;;;;;;;5014971;28;20672;-59
2023/06/09 00:39:11;;;;;;;11.80;4.22;;;;;;;;;;5020718;28;20252;-58
2023/06/09 00:41:36;;;;;;;11.68;4.35;;;;;;;;;;5022770;28;20610;-59
2023/06/09 00:44:02;;;;;;;11.75;4.40;;;;;;;;;;5003303;28;20572;-58
2023/06/09 00:46:27;;;;;;;12.55;4.28;;;;;;;;;;5021650;28;20214;-58
2023/06/09 00:48:53;;;;;;;14.40;5.07;;;;;;;;;;5023482;28;20295;-59
2023/06/09 00:51:18;;;;;;;10.73;4.40;;;;;;;;;;5022933;28;20580;-59
2023/06/09 00:53:43;;;;;;;14.15;4.28;;;;;;;;;;5016172;28;20208;-59
2023/06/09 00:56:08;;;;;;;15.25;4.63;;;;;;;;;;4995533;28;20539;-58
2023/06/09 00:58:34;;;;;;;16.17;4.78;;;;;;;;;;4995544;28;20295;-58
2023/06/09 01:00:59;;;;;;;12.48;4.53;;;;;;;;;;4998454;28;20224;-58
2023/06/09 01:03:26;;;;;;;11.50;4.47;;;;;;;;;;5003942;28;20650;-59
2023/06/09 01:05:54;;;;;;;11.73;4.40;;;;;;;;;;5003283;28;20403;-59
2023/06/09 01:08:24;;;;;;;11.88;4.25;;;;;;;;;;5021560;28;20229;-58
2023/06/09 01:11:20;;;;;;;13.57;4.03;;;;;;;;;;5021605;28;20220;-59
2023/06/09 01:13:50;;;;;;;18.75;4.40;;;;;;;;;;4935735;28;20219;-59
2023/06/09 01:16:18;;;;;;;10.80;4.57;;;;;;;;;;5016184;28;20763;-59
2023/06/09 01:18:45;;;;;;;12.90;4.82;;;;;;;;;;5014979;28;20504;-58
2023/06/09 01:21:18;;;;;;;14.40;4.95;;;;;;;;;;5014125;28;20218;-59
2023/06/09 01:23:51;;;;;;;12.20;4.65;;;;;;;;;;5017583;28;20220;-59
2023/06/09 01:26:16;;;;;;;14.82;4.40;;;;;;;;;;5022140;28;20315;-59
2023/06/09 01:28:43;;;;;;;12.57;4.63;;;;;;;;;;5022757;28;20302;-58
2023/06/09 01:31:08;;;;;;;16.23;5.10;;;;;;;;;;5020984;28;20250;-58
2023/06/09 01:33:33;;;;;;;14.32;4.78;;;;;;;;;;5008831;28;20216;-59
2023/06/09 01:35:59;;;;;;;11.35;4.30;;;;;;;;;;5002551;28;20783;-59
2023/06/09 01:38:24;;;;;;;17.60;5.60;;;;;;;;;;5002957;28;20561;-58
2023/06/09 01:40:49;;;;;;;16.67;4.93;;;;;;;;;;5012410;28;20212;-59
2023/06/09 01:43:15;;;;;;;14.63;4.82;;;;;;;;;;4999544;28;20212;-59
2023/06/09 01:45:40;;;;;;;20.35;4.82;;;;;;;;;;4994994;28;20746;-59
2023/06/09 01:48:26;;;;;;;13.93;4.72;;;;;;;;;;5005105;28;20758;-58
2023/06/09 01:50:56;;;;;;;15.10;4.75;;;;;;;;;;5023765;28;20599;-58
2023/06/09 01:53:41;;;;;;;14.35;4.95;;;;;;;;;;5041555;28;20588;-58
2023/06/09 01:56:25;;;;;;;14.85;4.97;;;;;;;;;;5041731;28;20230;-58
2023/06/09 01:58:55;;;;;;;14.35;4.38;;;;;;;;;;5032497;28;20207;-58
2023/06/09 02:01:21;;;;;;;17.58;5.20;;;;;;;;;;5030116;28;20223;-58
2023/06/09 02:03:47;;;;;;;15.57;4.82;;;;;;;;;;5031107;28;20645;-58
2023/06/09 02:06:12;;;;;;;12.40;4.40;;;;;;;;;;5030811;28;20203;-58
2023/06/09 02:08:37;;;;;;;12.13;4.93;;;;;;;;;;5030495;28;20606;-58
2023/06/09 02:11:03;;;;;;;15.90;5.07;;;;;;;;;;5030550;28;20207;-58
2023/06/09 02:13:28;;;;;;;15.20;5.28;;;;;;;;;;5032087;28;20243;-58
2023/06/09 02:15:55;;;;;;;14.10;4.82;;;;;;;;;;5031445;28;20219;-58
2023/06/09 02:18:21;;;;;;;13.45;4.38;;;;;;;;;;5031631;28;20225;-58
2023/06/09 02:20:46;;;;;;;13.82;5.30;;;;;;;;;;5032393;28;20207;-59
2023/06/09 02:23:12;;;;;;;17.95;5.10;;;;;;;;;;5031019;28;20219;-58
2023/06/09 02:25:37;;;;;;;18.10;4.78;;;;;;;;;;5032238;28;20218;-58
2023/06/09 02:28:03;;;;;;;13.98;4.95;;;;;;;;;;5031729;28;20603;-59
2023/06/09 02:30:28;;;;;;;24.73;5.50;;;;;;;;;;5031288;28;20211;-58
2023/06/09 02:32:55;;;;;;;11.45;4.55;;;;;;;;;;5031921;28;20224;-58
2023/06/09 02:35:20;;;;;;;17.92;5.45;;;;;;;;;;5031120;28;20307;-59
2023/06/09 02:37:46;;;;;;;13.20;4.72;;;;;;;;;;5031248;28;20583;-59
2023/06/09 02:40:12;;;;;;;17.52;4.90;;;;;;;;;;5030557;28;20211;-58
2023/06/09 02:42:37;;;;;;;16.52;5.63;;;;;;;;;;5025191;28;20697;-58
2023/06/09 02:45:03;;;;;;;13.52;5.43;;;;;;;;;;5031328;28;20211;-58
2023/06/09 02:47:28;;;;;;;14.15;5.07;;;;;;;;;;5031790;28;20204;-58
2023/06/09 02:49:53;;;;;;;14.98;4.93;;;;;;;;;;5021571;28;20216;-59
2023/06/09 02:52:19;;;;;;;16.27;5.00;;;;;;;;;;5013558;28;20239;-58
2023/06/09 02:54:44;;;;;;;15.73;5.05;;;;;;;;;;5012230;28;20235;-58
2023/06/09 02:57:10;;;;;;;15.88;5.38;;;;;;;;;;5029896;28;20595;-57
2023/06/09 02:59:36;;;;;;;15.27;5.18;;;;;;;;;;5026133;28;20210;-58
2023/06/09 03:02:01;;;;;;;14.32;5.70;;;;;;;;;;5018390;28;20301;-58
2023/06/09 03:04:26;;;;;;;14.27;5.20;;;;;;;;;;5015476;28;20631;-58
2023/06/09 03:06:53;;;;;;;13.75;5.22;;;;;;;;;;5015680;28;20216;-59
2023/06/09 03:09:18;;;;;;;14.80;5.03;;;;;;;;;;5015614;28;20208;-59
2023/06/09 03:11:44;;;;;;;12.35;4.70;;;;;;;;;;5015247;28;20571;-58
2023/06/09 03:14:09;;;;;;;14.23;5.50;;;;;;;;;;5015902;28;20659;-59
2023/06/09 03:16:34;;;;;;;15.82;5.95;;;;;;;;;;5035423;28;20307;-59
2023/06/09 03:19:00;;;;;;;15.45;5.90;;;;;;;;;;5034739;28;20697;-58
2023/06/09 03:21:26;;;;;;;16.13;5.20;;;;;;;;;;5035052;28;20215;-58
2023/06/09 03:23:51;;;;;;;16.33;5.47;;;;;;;;;;5035353;28;20211;-58
2023/06/09 03:26:17;;;;;;;14.13;5.40;;;;;;;;;;5033952;28;20292;-58
2023/06/09 03:28:43;;;;;;;18.30;5.60;;;;;;;;;;5035262;28;20298;-59
2023/06/09 03:31:08;;;;;;;14.77;5.60;;;;;;;;;;5034713;28;20294;-58
2023/06/09 03:33:33;;;;;;;14.15;4.93;;;;;;;;;;5034375;28;20208;-58
2023/06/09 03:35:59;;;;;;;13.77;6.07;;;;;;;;;;5035274;28;20626;-58
2023/06/09 03:38:24;;;;;;;14.90;5.47;;;;;;;;;;5033990;28;20212;-58
2023/06/09 03:40:49;;;;;;;17.33;5.55;;;;;;;;;;5011942;28;20217;-58
2023/06/09 03:43:15;;;;;;;15.43;6.22;;;;;;;;;;5005713;28;20302;-58
2023/06/09 03:45:40;;;;;;;21.00;6.85;;;;;;;;;;5005165;28;20567;-58
2023/06/09 03:48:06;;;;;;;14.38;6.00;;;;;;;;;;5004834;28;20616;-58
2023/06/09 03:50:31;;;;;;;17.40;6.40;;;;;;;;;;5014429;28;20692;-58
2023/06/09 03:52:57;;;;;;;15.25;5.82;;;;;;;;;;5004265;28;20212;-58
2023/06/09 03:55:24;;;;;;;17.63;6.45;;;;;;;;;;4996795;28;20267;-58
2023/06/09 03:57:49;;;;;;;16.80;5.88;;;;;;;;;;4997547;28;20258;-58
2023/06/09 04:00:15;;;;;;;19.40;6.65;;;;;;;;;;4998427;28;20299;-59
2023/06/09 04:02:40;;;;;;;20.08;7.10;;;;;;;;;;5004434;28;20213;-58
2023/06/09 04:05:06;;;;;;;15.32;5.60;;;;;;;;;;5006160;28;20224;-58
2023/06/09 04:07:32;;;;;;;24.67;6.90;;;;;;;;;;5003481;28;20844;-58
2023/06/09 04:09:57;;;;;;;15.80;6.13;;;;;;;;;;5005023;28;20230;-58
2023/06/09 04:12:22;;;;;;;21.52;6.80;;;;;;;;;;5004707;28;20668;-58
2023/06/09 04:14:48;;;;;;;19.10;6.40;;;;;;;;;;5004319;28;20228;-58
2023/06/09 04:17:13;;;;;;;17.27;6.57;;;;;;;;;;4997871;28;20205;-58
2023/06/09 04:19:38;;;;;;;19.60;6.43;;;;;;;;;;5015431;28;20496;-58
2023/06/09 04:22:07;;;;;;;17.55;6.45;;;;;;;;;;5015822;28;20590;-58
2023/06/09 04:24:32;;;;;;;16.15;7.00;;;;;;;;;;5021355;28;20223;-58
2023/06/09 04:26:58;;;;;;;17.67;6.65;;;;;;;;;;5016421;28;20212;-61
2023/06/09 04:29:25;;;;;;;17.58;6.10;;;;;;;;;;5018121;28;20299;-58
2023/06/09 04:31:58;;;;;;;18.85;6.40;;;;;;;;;;5004429;28;20517;-58
2023/06/09 04:34:25;;;;;;;19.75;6.95;;;;;;;;;;5023459;28;20214;-58
2023/06/09 04:36:52;;;;;;;18.77;6.18;;;;;;;;;;5014056;28;20235;-59
2023/06/09 04:39:18;;;;;;;18.83;6.32;;;;;;;;;;4999333;28;20605;-59
2023/06/09 04:41:44;;;;;;;17.67;6.70;;;;;;;;;;4996561;28;20208;-59
2023/06/09 04:44:09;;;;;;;20.52;7.13;;;;;;;;;;5002696;28;20227;-59
2023/06/09 04:46:37;;;;;;;18.00;7.20;;;;;;;;;;5001174;28;20663;-59
2023/06/09 04:49:09;;;;;;;20.20;6.32;;;;;;;;;;5006749;28;20220;-59
2023/06/09 04:51:41;;;;;;;17.85;6.60;;;;;;;;;;5005177;28;20278;-60
2023/06/09 04:54:07;;;;;;;19.08;7.30;;;;;;;;;;5004412;28;20609;-59
2023/06/09 04:56:32;;;;;;;18.13;7.25;;;;;;;;;;5004192;28;20817;-60
2023/06/09 04:58:58;;;;;;;18.30;7.22;;;;;;;;;;5003868;28;20684;-60
2023/06/09 05:01:23;;;;;;;14.45;7.15;;;;;;;;;;5000825;28;20213;-59
2023/06/09 05:03:48;;;;;;;18.77;6.95;;;;;;;;;;4995185;28;20219;-59
2023/06/09 05:06:14;;;;;;;23.98;7.68;;;;;;;;;;4995326;28;20221;-59
2023/06/09 05:08:39;;;;;;;17.88;6.75;;;;;;;;;;4998951;28;20688;-60
2023/06/09 05:11:05;;;;;;;17.95;6.78;;;;;;;;;;5022286;28;20299;-59
2023/06/09 05:13:30;;;;;;;22.15;7.95;;;;;;;;;;5023169;28;20218;-59
2023/06/09 05:15:57;;;;;;;18.52;7.28;;;;;;;;;;5008247;28;20758;-60
2023/06/09 05:18:22;;;;;;;18.63;7.30;;;;;;;;;;5002611;28;20222;-59
2023/06/09 05:20:47;;;;;;;17.73;6.93;;;;;;;;;;5003693;28;20587;-59
2023/06/09 05:23:13;;;;;;;19.77;6.88;;;;;;;;;;5002830;28;20213;-59
2023/06/09 05:25:38;;;;;;;18.15;6.85;;;;;;;;;;4995405;28;20856;-59
2023/06/09 05:28:03;;;;;;;17.75;7.30;;;;;;;;;;4995362;28;20212;-60
2023/06/09 05:30:29;;;;;;;16.88;7.15;;;;;;;;;;4996117;28;20240;-59
2023/06/09 05:32:54;;;;;;;15.35;6.90;;;;;;;;;;5002696;28;20216;-59
2023/06/09 05:35:19;;;;;;;21.75;6.90;;;;;;;;;;5002582;28;20223;-60
2023/06/09 05:37:49;;;;;;;15.07;6.75;;;;;;;;;;5003703;28;20331;-60
2023/06/09 05:40:15;;;;;;;17.35;7.28;;;;;;;;;;5021451;28;20224;-59
2023/06/09 05:42:41;;;;;;;15.80;7.05;;;;;;;;;;5022810;28;20223;-59
2023/06/09 05:45:07;;;;;;;16.20;7.35;;;;;;;;;;5022284;28;20210;-59
2023/06/09 05:47:33;;;;;;;15.80;6.80;;;;;;;;;;5012664;28;20220;-60
2023/06/09 05:49:59;;;;;;;19.08;7.28;;;;;;;;;;4994924;28;20578;-59
2023/06/09 05:52:24;;;;;;;17.80;7.43;;;;;;;;;;5008927;28;20216;-59
2023/06/09 05:54:49;;;;;;;15.95;7.63;;;;;;;;;;5001033;28;20314;-59
2023/06/09 05:57:15;;;;;;;16.33;6.93;;;;;;;;;;5003046;28;20236;-60
2023/06/09 05:59:41;;;;;;;18.85;7.72;;;;;;;;;;5002606;28;20597;-59
2023/06/09 06:02:07;;;;;;;17.05;7.63;;;;;;;;;;5004738;28;20208;-58
2023/06/09 06:04:32;;;;;;;19.95;8.15;;;;;;;;;;5002652;28;20631;-59
2023/06/09 06:06:58;;;;;;;22.27;8.68;;;;;;;;;;5002492;28;20220;-59
2023/06/09 06:09:23;;;;;;;17.73;7.53;;;;;;;;;;4998856;28;20208;-59
2023/06/09 06:11:48;;;;;;;20.15;8.80;;;;;;;;;;4994650;28;20244;-60
2023/06/09 06:14:13;;;;;;;21.42;8.23;;;;;;;;;;4994503;28;20224;-59
2023/06/09 06:16:39;;;;;;;17.38;8.50;;;;;;;;;;4998571;28;20317;-59
2023/06/09 06:19:04;;;;;;;17.60;8.55;;;;;;;;;;5002624;28;20223;-59
2023/06/09 06:21:29;;;;;;;20.25;9.35;;;;;;;;;;5002035;28;20640;-59
2023/06/09 06:23:55;;;;;;;18.60;8.60;;;;;;;;;;5002803;28;20259;-59
2023/06/09 06:26:20;;;;;;;22.38;9.15;;;;;;;;;;5002243;28;20227;-59
2023/06/09 06:28:46;;;;;;;18.10;8.10;;;;;;;;;;5002204;28;20596;-59
2023/06/09 06:31:11;;;;;;;17.40;8.48;;;;;;;;;;5000577;28;20998;-59
2023/06/09 06:33:36;;;;;;;19.35;8.68;;;;;;;;;;4995153;28;20208;-59
2023/06/09 06:36:02;;;;;;;19.10;8.40;;;;;;;;;;4993245;28;20262;-59
2023/06/09 06:38:27;;;;;;;15.63;7.90;;;;;;;;;;4996010;28;20741;-59
2023/06/09 06:40:52;;;;;;;14.30;7.97;;;;;;;;;;5002425;28;20271;-59
2023/06/09 06:43:18;;;;;;;17.15;9.15;;;;;;;;;;5001511;28;20221;-59
2023/06/09 06:45:43;;;;;;;17.55;8.20;;;;;;;;;;5002720;28;20263;-59
2023/06/09 06:48:08;;;;;;;17.15;8.07;;;;;;;;;;5002559;28;20581;-59
2023/06/09 06:50:34;;;;;;;18.10;8.27;;;;;;;;;;5002087;28;20212;-60
2023/06/09 06:53:00;;;;;;;23.95;8.45;;;;;;;;;;5011896;28;20262;-59
2023/06/09 06:55:25;;;;;;;23.38;9.27;;;;;;;;;;4995548;28;20227;-60
2023/06/09 06:57:50;;;;;;;14.15;8.35;;;;;;;;;;5010958;28;20216;-59
2023/06/09 07:00:16;;;;;;;18.75;8.27;;;;;;;;;;5007686;28;20253;-59
2023/06/09 07:02:43;;;;;;;23.92;8.80;;;;;;;;;;5009391;28;20299;-59
2023/06/09 07:05:08;;;;;;;17.02;8.68;;;;;;;;;;5009097;28;20208;-59
2023/06/09 07:07:33;;;;;;;15.13;9.30;;;;;;;;;;5010973;28;20213;-59
2023/06/09 07:09:59;;;;;;;17.52;8.52;;;;;;;;;;5011341;28;20219;-59
2023/06/09 07:12:24;;;;;;;19.88;8.32;;;;;;;;;;5011616;28;20208;-59
2023/06/09 07:14:50;;;;;;;23.73;9.65;;;;;;;;;;5018071;28;20266;-59
2023/06/09 07:17:15;;;;;;;18.30;8.93;;;;;;;;;;5024750;28;20300;-59
2023/06/09 07:19:40;;;;;;;19.15;9.15;;;;;;;;;;5018314;28;20218;-59
2023/06/09 07:22:06;;;;;;;19.65;9.23;;;;;;;;;;5023105;28;20562;-60
2023/06/09 07:24:31;;;;;;;18.92;9.13;;;;;;;;;;5021358;28;20204;-59
2023/06/09 07:26:57;;;;;;;18.25;8.65;;;;;;;;;;5020498;28;20754;-60
2023/06/09 07:29:22;;;;;;;18.23;9.50;;;;;;;;;;5028290;28;20212;-60
2023/06/09 07:31:47;;;;;;;16.30;8.80;;;;;;;;;;5030801;28;20207;-59
2023/06/09 07:34:13;;;;;;;21.30;9.27;;;;;;;;;;5029987;28;20209;-60
2023/06/09 07:36:40;;;;;;;19.38;8.50;;;;;;;;;;5015730;28;20677;-60
2023/06/09 07:39:05;;;;;;;15.18;8.95;;;;;;;;;;5036544;28;20219;-59
2023/06/09 07:41:31;;;;;;;18.33;9.45;;;;;;;;;;5051330;28;20306;-60
2023/06/09 07:43:57;;;;;;;18.60;8.90;;;;;;;;;;5054444;28;20203;-60
2023/06/09 07:46:22;;;;;;;17.92;9.25;;;;;;;;;;5034936;28;20310;-61
2023/06/09 07:48:47;;;;;;;19.58;9.23;;;;;;;;;;5035009;28;20279;-60
2023/06/09 07:51:14;;;;;;;15.00;8.88;;;;;;;;;;5034184;28;20579;-60
2023/06/09 07:53:39;;;;;;;17.92;9.25;;;;;;;;;;5049766;28;20211;-60
2023/06/09 07:56:04;;;;;;;17.98;8.98;;;;;;;;;;5046204;28;20372;-60
2023/06/09 07:58:30;;;;;;;22.20;9.13;;;;;;;;;;5054382;28;20211;-60
2023/06/09 08:00:55;;;;;;;17.55;9.25;;;;;;;;;;5037844;28;20208;-60
2023/06/09 08:03:21;;;;;;;17.17;8.55;;;;;;;;;;5019359;28;20251;-59
2023/06/09 08:05:46;;;;;;;18.73;9.50;;;;;;;;;;5026724;28;20618;-60
2023/06/09 08:08:12;;;;;;;18.38;9.30;;;;;;;;;;5030054;28;20212;-59
2023/06/09 08:10:37;;;;;;;17.20;8.32;;;;;;;;;;5030317;28;20211;-59
2023/06/09 08:13:02;;;;;;;14.88;8.77;;;;;;;;;;5031453;28;20678;-59
2023/06/09 08:15:27;;;;;;;17.05;8.98;;;;;;;;;;5034242;28;20255;-59
2023/06/09 08:17:53;;;;;;;15.25;8.88;;;;;;;;;;5034269;28;20558;-59
2023/06/09 08:20:18;;;;;;;17.75;8.55;;;;;;;;;;5033086;28;20230;-59
2023/06/09 08:22:44;;;;;;;16.23;8.07;;;;;;;;;;5034017;28;20212;-59
2023/06/09 08:25:12;;;;;;;14.98;9.02;;;;;;;;;;5033867;28;20212;-59
2023/06/09 08:27:37;;;;;;;19.05;8.93;;;;;;;;;;5033780;28;20227;-59
2023/06/09 08:30:03;;;;;;;20.38;8.93;;;;;;;;;;5033676;28;20683;-58
2023/06/09 08:32:29;;;;;;;19.45;8.98;;;;;;;;;;5034078;28;20219;-59
2023/06/09 08:34:55;;;;;;;17.35;8.75;;;;;;;;;;5031769;28;20595;-59
2023/06/09 08:37:21;;;;;;;18.83;8.18;;;;;;;;;;5033578;28;20218;-59
2023/06/09 08:39:47;;;;;;;15.02;8.55;;;;;;;;;;5032667;28;20211;-59
2023/06/09 08:42:20;;;;;;;17.48;9.43;;;;;;;;;;5032745;28;20212;-59
2023/06/09 08:44:45;;;;;;;36.13;9.18;;;;;;;;;;5033887;28;20248;-59
2023/06/09 08:47:11;;;;;;;14.65;8.43;;;;;;;;;;5032130;28;20211;-59
2023/06/09 08:49:36;;;;;;;17.20;8.55;;;;;;;;;;5032949;28;20573;-59
2023/06/09 08:52:02;;;;;;;16.58;9.77;;;;;;;;;;5035530;28;20204;-59
2023/06/09 08:54:28;;;;;;;15.30;9.02;;;;;;;;;;5053225;28;20265;-59
2023/06/09 08:56:53;;;;;;;14.85;8.55;;;;;;;;;;5037449;28;20228;-59
2023/06/09 08:59:20;;;;;;;16.60;9.02;;;;;;;;;;5033322;28;20632;-59
2023/06/09 09:01:46;;;;;;;17.33;8.75;;;;;;;;;;5033600;28;20289;-60
2023/06/09 09:04:12;;;;;;;16.27;8.85;;;;;;;;;;5032305;28;20218;-59
2023/06/09 09:06:39;;;;;;;17.42;8.80;;;;;;;;;;5033513;28;20565;-60
2023/06/09 09:09:04;;;;;;;13.27;8.65;;;;;;;;;;5032176;28;20211;-59
2023/06/09 09:11:29;;;;;;;13.80;8.68;;;;;;;;;;5032618;28;20553;-59
2023/06/09 09:13:55;;;;;;;15.35;9.18;;;;;;;;;;5033126;28;20701;-59
2023/06/09 09:16:20;;;;;;;27.67;9.50;;;;;;;;;;5032015;28;20322;-59
2023/06/09 09:18:48;;;;;;;16.90;9.20;;;;;;;;;;5032937;28;20239;-59
2023/06/09 09:21:21;;;;;;;15.70;8.80;;;;;;;;;;5032875;28;20694;-59
2023/06/09 09:23:54;;;;;;;15.02;9.02;;;;;;;;;;5032681;28;20211;-59
2023/06/09 09:26:19;;;;;;;14.68;8.15;;;;;;;;;;5032467;28;20262;-59
2023/06/09 09:28:45;;;;;;;16.38;8.98;;;;;;;;;;5031783;28;20224;-60
2023/06/09 09:31:11;;;;;;;16.75;8.68;;;;;;;;;;5031899;28;20290;-60
2023/06/09 09:33:39;;;;;;;18.88;9.48;;;;;;;;;;5032877;28;20750;-60
2023/06/09 09:36:07;;;;;;;14.27;8.88;;;;;;;;;;5032550;28;20302;-59
2023/06/09 09:38:33;;;;;;;17.00;7.65;;;;;;;;;;5030753;28;20212;-59
2023/06/09 09:40:59;;;;;;;15.40;7.90;;;;;;;;;;5032733;28;20207;-59
2023/06/09 09:43:24;;;;;;;47.28;9.60;;;;;;;;;;5032419;28;20210;-60
2023/06/09 09:45:50;;;;;;;14.02;7.88;;;;;;;;;;5032162;28;20211;-59
2023/06/09 09:48:17;;;;;;;13.13;8.27;;;;;;;;;;5032050;28;20212;-59
2023/06/09 09:50:43;;;;;;;13.60;8.30;;;;;;;;;;5031620;28;20212;-59
2023/06/09 09:53:08;;;;;;;13.57;7.85;;;;;;;;;;5042900;28;20234;-59
2023/06/09 09:55:34;;;;;;;14.25;7.65;;;;;;;;;;5047867;28;20226;-59
2023/06/09 09:58:00;;;;;;;11.88;6.78;;;;;;;;;;5032640;28;20215;-59
2023/06/09 10:00:26;;;;;;;12.23;6.80;;;;;;;;;;5030244;28;20224;-59
2023/06/09 10:02:51;;;;;;;9.60;6.38;;;;;;;;;;5022607;28;20273;-59
2023/06/09 10:05:16;;;;;;;16.73;8.00;;;;;;;;;;5017446;28;20236;-59
2023/06/09 10:07:42;;;;;;;12.52;7.40;;;;;;;;;;5020067;28;20219;-59
2023/06/09 10:10:10;;;;;;;11.80;6.45;;;;;;;;;;5022440;28;20250;-60
2023/06/09 10:12:39;;;;;;;16.70;6.03;;;;;;;;;;5022143;28;20214;-60
2023/06/09 10:15:08;;;;;;;11.75;6.88;;;;;;;;;;5021269;28;20220;-60
2023/06/09 10:17:33;;;;;;;13.23;6.60;;;;;;;;;;5013639;28;20239;-60
2023/06/09 10:19:59;;;;;;;9.05;5.88;;;;;;;;;;5021185;28;20215;-60
2023/06/09 10:22:24;;;;;;;9.23;6.00;;;;;;;;;;5021075;28;20224;-60
2023/06/09 10:24:50;;;;;;;11.65;6.05;;;;;;;;;;5021218;28;20216;-59
2023/06/09 10:27:16;;;;;;;10.70;5.95;;;;;;;;;;5024464;28;20224;-59
2023/06/09 10:29:41;;;;;;;10.95;6.13;;;;;;;;;;5012588;28;20216;-60
2023/06/09 10:32:07;;;;;;;10.02;5.30;;;;;;;;;;5012065;28;20270;-59
2023/06/09 10:34:33;;;;;;;16.13;5.88;;;;;;;;;;5011637;28;20213;-59
2023/06/09 10:36:58;;;;;;;9.02;5.65;;;;;;;;;;5011229;28;20216;-59
2023/06/09 10:39:25;;;;;;;10.00;5.85;;;;;;;;;;5010445;28;20342;-59
2023/06/09 10:42:05;;;;;;;8.88;5.55;;;;;;;;;;5011467;28;20686;-60
2023/06/09 10:44:40;;;;;;;9.05;5.20;;;;;;;;;;5010730;28;20258;-59
2023/06/09 10:47:06;;;;;;;11.95;5.30;;;;;;;;;;5020860;28;20216;-59
2023/06/09 10:49:36;;;;;;;12.32;5.47;;;;;;;;;;5029926;28;20210;-59
2023/06/09 10:52:04;;;;;;;10.32;5.22;;;;;;;;;;5033796;28;20211;-60
2023/06/09 10:54:30;;;;;;;11.57;5.15;;;;;;;;;;5023040;28;20208;-59
2023/06/09 10:57:00;;;;;;;7.25;4.45;;;;;;;;;;5044888;28;20302;-59
2023/06/09 10:59:25;;;;;;;8.88;5.03;;;;;;;;;;5037480;28;20208;-59
2023/06/09 11:02:02;;;;;;;10.55;5.07;;;;;;;;;;5015081;28;20688;-59
2023/06/09 11:05:01;;;;;;;8.63;4.85;;;;;;;;;;5051119;28;20597;-59
2023/06/09 11:07:29;;;;;;;9.27;4.82;;;;;;;;;;5050589;28;20215;-58
2023/06/09 11:09:57;;;;;;;9.73;5.00;;;;;;;;;;5050654;28;20211;-59
2023/06/09 11:12:38;;;;;;;8.98;5.18;;;;;;;;;;5049318;28;20569;-58
2023/06/09 11:15:04;;;;;;;9.85;5.32;;;;;;;;;;5015817;28;20228;-59
2023/06/09 11:17:33;;;;;;;11.23;5.00;;;;;;;;;;5032945;28;20298;-59
2023/06/09 11:20:11;;;;;;;8.65;4.72;;;;;;;;;;5034291;28;20208;-59
2023/06/09 11:22:43;;;;;;;7.32;4.63;;;;;;;;;;5035410;28;20212;-59
2023/06/09 11:25:30;;;;;;;17.90;5.13;;;;;;;;;;5034213;28;20219;-59
2023/06/09 11:27:55;;;;;;;8.70;4.90;;;;;;;;;;5021755;28;20215;-59
2023/06/09 11:30:21;;;;;;;43.88;6.57;;;;;;;;;;5034231;28;20215;-59
2023/06/09 11:32:53;;;;;;;9.18;4.80;;;;;;;;;;5034988;28;20765;-59
2023/06/09 11:35:25;;;;;;;7.60;4.70;;;;;;;;;;5034702;28;20315;-59
2023/06/09 11:37:51;;;;;;;8.88;4.68;;;;;;;;;;5034414;28;20215;-59
2023/06/09 11:40:16;;;;;;;7.72;5.00;;;;;;;;;;5034712;28;20580;-59
2023/06/09 11:42:42;;;;;;;7.35;4.45;;;;;;;;;;5034819;28;20207;-59
2023/06/09 11:45:07;;;;;;;8.45;4.28;;;;;;;;;;5032552;28;20207;-60
2023/06/09 11:47:33;;;;;;;7.50;4.22;;;;;;;;;;5034614;28;20231;-59
2023/06/09 11:50:00;;;;;;;8.27;4.25;;;;;;;;;;5035152;28;20211;-59
2023/06/09 11:52:26;;;;;;;9.98;4.75;;;;;;;;;;5039507;28;20211;-59
2023/06/09 11:54:51;;;;;;;9.05;4.60;;;;;;;;;;5054775;28;20590;-59
2023/06/09 11:57:16;;;;;;;8.75;4.70;;;;;;;;;;5035898;28;20247;-59
2023/06/09 11:59:42;;;;;;;8.02;4.78;;;;;;;;;;5034022;28;20211;-59
2023/06/09 12:02:07;;;;;;;8.70;4.50;;;;;;;;;;5049914;28;20225;-59
2023/06/09 12:04:33;;;;;;;6.80;4.25;;;;;;;;;;5054417;28;20571;-59
2023/06/09 12:06:58;;;;;;;7.20;4.40;;;;;;;;;;5054265;28;20284;-59
2023/06/09 12:09:24;;;;;;;6.90;4.40;;;;;;;;;;5053853;28;20200;-59
2023/06/09 12:11:52;;;;;;;7.88;4.50;;;;;;;;;;5054480;28;20211;-59
2023/06/09 12:14:18;;;;;;;7.97;4.85;;;;;;;;;;5035154;28;20675;-60
2023/06/09 12:16:43;;;;;;;9.10;4.60;;;;;;;;;;5046677;28;20229;-59
2023/06/09 12:19:09;;;;;;;10.73;4.78;;;;;;;;;;5053366;28;20254;-59
2023/06/09 12:21:34;;;;;;;6.60;4.43;;;;;;;;;;5054094;28;20210;-59
2023/06/09 12:23:59;;;;;;;10.10;4.60;;;;;;;;;;5054329;28;20294;-59
2023/06/09 12:26:25;;;;;;;12.63;5.03;;;;;;;;;;5053072;28;20652;-59
2023/06/09 12:28:54;;;;;;;8.35;4.45;;;;;;;;;;5053066;28;20209;-59
2023/06/09 12:31:19;;;;;;;6.45;4.30;;;;;;;;;;5053216;28;20264;-59
2023/06/09 12:33:45;;;;;;;8.60;4.93;;;;;;;;;;5053421;28;20219;-59
2023/06/09 12:36:11;;;;;;;7.78;4.13;;;;;;;;;;5053450;28;20211;-60
2023/06/09 12:38:37;;;;;;;8.30;4.65;;;;;;;;;;5052512;28;20241;-59
2023/06/09 12:41:09;;;;;;;8.43;4.35;;;;;;;;;;5052675;28;20705;-59
2023/06/09 12:43:44;;;;;;;9.07;4.40;;;;;;;;;;5053557;28;20241;-59
2023/06/09 12:46:09;;;;;;;6.97;4.35;;;;;;;;;;5053138;28;20673;-59
2023/06/09 12:48:53;;;;;;;6.10;3.88;;;;;;;;;;5053163;28;20233;-59
2023/06/09 12:51:18;;;;;;;8.25;4.75;;;;;;;;;;5053431;28;20215;-59
2023/06/09 12:53:44;;;;;;;9.93;4.30;;;;;;;;;;5053801;28;20218;-59
2023/06/09 12:56:09;;;;;;;20.05;5.05;;;;;;;;;;5043438;28;20228;-60
2023/06/09 12:58:35;;;;;;;12.85;4.40;;;;;;;;;;5033746;28;20231;-59
2023/06/09 13:01:00;;;;;;;7.20;4.45;;;;;;;;;;5040849;28;20203;-59
2023/06/09 13:03:25;;;;;;;9.65;4.65;;;;;;;;;;5052350;28;20681;-59
2023/06/09 13:05:51;;;;;;;8.07;4.18;;;;;;;;;;5053519;28;20214;-59
2023/06/09 13:08:16;;;;;;;8.85;4.30;;;;;;;;;;5052923;28;20285;-59
2023/06/09 13:10:41;;;;;;;8.02;4.30;;;;;;;;;;5052667;28;20215;-59
2023/06/09 13:13:06;;;;;;;8.20;4.00;;;;;;;;;;5044743;28;20211;-59
2023/06/09 13:15:32;;;;;;;10.98;4.30;;;;;;;;;;5035603;28;20395;-59
2023/06/09 13:17:57;;;;;;;9.02;4.07;;;;;;;;;;5053199;28;20215;-59
2023/06/09 13:20:22;;;;;;;7.38;4.50;;;;;;;;;;5052846;28;20668;-59
2023/06/09 13:22:49;;;;;;;8.23;3.63;;;;;;;;;;5052400;28;20207;-59
2023/06/09 13:25:16;;;;;;;7.35;4.03;;;;;;;;;;5052660;28;20215;-59
2023/06/09 13:27:41;;;;;;;7.40;4.40;;;;;;;;;;5053217;28;20648;-59
2023/06/09 13:30:07;;;;;;;7.57;3.97;;;;;;;;;;5051430;28;20665;-59
2023/06/09 13:32:32;;;;;;;6.50;4.20;;;;;;;;;;5052640;28;20214;-59
2023/06/09 13:34:57;;;;;;;9.57;4.47;;;;;;;;;;5052892;28;20231;-59
2023/06/09 13:37:23;;;;;;;6.65;4.05;;;;;;;;;;5051903;28;20246;-59
2023/06/09 13:39:48;;;;;;;6.40;3.58;;;;;;;;;;5052659;28;20205;-59
2023/06/09 13:42:13;;;;;;;5.97;3.70;;;;;;;;;;5052528;28;20568;-59
2023/06/09 13:44:39;;;;;;;7.07;3.85;;;;;;;;;;5051943;28;20591;-59
2023/06/09 13:47:04;;;;;;;8.13;3.80;;;;;;;;;;5051795;28;20238;-59
2023/06/09 13:49:30;;;;;;;6.45;3.83;;;;;;;;;;5052826;28;20567;-59
2023/06/09 13:51:55;;;;;;;10.98;4.10;;;;;;;;;;5051751;28;20214;-59
2023/06/09 13:54:20;;;;;;;9.93;4.05;;;;;;;;;;5052106;28;20210;-59
2023/06/09 13:56:46;;;;;;;11.32;4.60;;;;;;;;;;5038326;28;20259;-59
2023/06/09 13:59:12;;;;;;;15.38;4.40;;;;;;;;;;5031305;28;20208;-59
2023/06/09 14:01:38;;;;;;;7.78;3.83;;;;;;;;;;5032062;28;20207;-59
2023/06/09 14:04:04;;;;;;;5.95;3.95;;;;;;;;;;5032026;28;20199;-59
2023/06/09 14:06:29;;;;;;;7.90;3.60;;;;;;;;;;5031618;28;20227;-59
2023/06/09 14:08:54;;;;;;;7.45;3.83;;;;;;;;;;5032420;28;20215;-59
2023/06/09 14:11:20;;;;;;;6.35;3.75;;;;;;;;;;5031906;28;20680;-59
2023/06/09 14:13:45;;;;;;;5.38;3.85;;;;;;;;;;5031536;28;20215;-59
2023/06/09 14:16:11;;;;;;;8.75;4.25;;;;;;;;;;5031295;28;20218;-60
2023/06/09 14:18:36;;;;;;;5.13;3.97;;;;;;;;;;5032415;28;20212;-59
2023/06/09 14:21:02;;;;;;;5.72;3.60;;;;;;;;;;5031210;28;20242;-59
2023/06/09 14:23:27;;;;;;;9.18;4.38;;;;;;;;;;5031068;28;20211;-59
2023/06/09 14:25:52;;;;;;;8.13;4.10;;;;;;;;;;5031448;28;20265;-59
2023/06/09 14:28:18;;;;;;;8.63;4.07;;;;;;;;;;5031920;28;20559;-59